Time;durP1;ratioP1;P1;durP2;ratioP2;P2;SDS_P1;SDS_P2;PMS_P1;PMS_P2;Temp;Humidity;BMP_temperature;BMP_pressure;BME280_temperature;BME280_humidity;BME280_pressure;Samples;Min_cycle;Max_cycle;Signal;HPM_P1;HPM_P2
2021/11/03 00:00:45;;;;;;;62.70;39.40;;;;;;;6.38;83.17;98811.70;114710;1195;107485;-62
2021/11/03 00:03:34;;;;;;;56.20;36.90;;;;;;;6.44;83.60;98814.40;114550;1194;137919;-62
2021/11/03 00:06:23;;;;;;;59.10;37.10;;;;;;;6.49;83.25;98812.64;114700;1195;94591;-62
2021/11/03 00:09:10;;;;;;;58.80;38.40;;;;;;;6.48;83.02;98816.13;114548;1195;137187;-63
2021/11/03 00:11:58;;;;;;;55.80;36.70;;;;;;;6.53;83.30;98821.13;114728;1194;108711;-62
2021/11/03 00:14:44;;;;;;;;;;;;;;;6.56;83.27;98825.48;114575;1194;137813;-62
2021/11/03 00:17:31;;;;;;;52.40;34.40;;;;;;;6.56;83.28;98823.79;114639;1187;94503;-62
2021/11/03 00:20:18;;;;;;;57.00;35.70;;;;;;;6.55;83.12;98820.86;114613;1195;137544;-62
2021/11/03 00:23:05;;;;;;;56.00;37.30;;;;;;;6.56;83.32;98823.42;114800;1194;109908;-62
2021/11/03 00:25:52;;;;;;;51.70;34.90;;;;;;;6.60;83.51;98820.13;114704;1194;108673;-62
2021/11/03 00:28:39;;;;;;;54.30;35.60;;;;;;;6.69;83.75;98820.84;114666;1194;107607;-62
2021/11/03 00:31:26;;;;;;;52.70;34.20;;;;;;;6.78;83.61;98821.88;114669;1195;94511;-62
2021/11/03 00:34:12;;;;;;;50.60;34.90;;;;;;;6.82;83.55;98818.61;114644;1194;137399;-61
2021/11/03 00:36:59;;;;;;;51.80;33.80;;;;;;;6.89;83.50;98819.20;114724;1194;110377;-61
2021/11/03 00:39:46;;;;;;;49.10;32.90;;;;;;;6.97;83.92;98818.16;114537;1194;137730;-62
2021/11/03 00:42:34;;;;;;;45.70;32.10;;;;;;;7.03;83.48;98817.77;114632;1195;108781;-62
2021/11/03 00:45:21;;;;;;;46.10;32.10;;;;;;;7.04;83.46;98816.86;114563;1194;137871;-62
2021/11/03 00:48:10;;;;;;;47.40;32.80;;;;;;;7.17;84.09;98818.90;114702;1187;94508;-61
2021/11/03 00:50:57;;;;;;;48.70;32.70;;;;;;;7.25;83.64;98818.73;114544;1194;137342;-62
2021/11/03 00:53:44;;;;;;;46.40;32.30;;;;;;;7.27;83.40;98820.55;114626;1195;108745;-62
2021/11/03 00:56:31;;;;;;;42.60;29.30;;;;;;;7.28;83.25;98817.42;114574;1194;138142;-62
2021/11/03 00:59:18;;;;;;;44.50;30.20;;;;;;;7.27;83.02;98815.73;114694;1194;94510;-62
2021/11/03 01:02:05;;;;;;;45.30;30.20;;;;;;;7.28;83.24;98814.83;114652;1195;94652;-62
2021/11/03 01:04:53;;;;;;;45.90;31.00;;;;;;;7.37;83.66;98813.94;114572;1194;138565;-62
2021/11/03 01:07:40;;;;;;;42.70;29.50;;;;;;;7.40;83.39;98811.41;114681;1195;108580;-62
2021/11/03 01:10:28;;;;;;;41.70;28.70;;;;;;;7.44;83.52;98811.90;114540;1194;139077;-62
2021/11/03 01:13:16;;;;;;;41.80;27.40;;;;;;;7.51;83.60;98815.23;114668;1195;94586;-62
2021/11/03 01:16:03;;;;;;;39.40;27.50;;;;;;;7.55;83.29;98818.68;114587;1195;138182;-62
2021/11/03 01:18:53;;;;;;;;;;;;;;;7.58;83.24;98813.41;114644;1194;110703;-62
2021/11/03 01:21:41;;;;;;;37.40;25.90;;;;;;;7.53;83.10;98808.58;114620;1194;123869;-62
2021/11/03 01:24:28;;;;;;;;;;;;;;;7.54;83.45;98814.41;114735;1194;108549;-62
2021/11/03 01:27:15;;;;;;;36.70;25.90;;;;;;;7.53;83.40;98815.50;114553;1194;124769;-62
2021/11/03 01:30:04;;;;;;;36.10;24.40;;;;;;;7.54;83.49;98813.56;114687;1195;94887;-62
2021/11/03 01:32:54;;;;;;;34.50;24.30;;;;;;;7.61;83.69;98815.85;114559;1194;138236;-62
2021/11/03 01:35:43;;;;;;;34.50;23.80;;;;;;;7.65;83.55;98814.45;114722;1195;108994;-62
2021/11/03 01:38:30;;;;;;;35.70;23.90;;;;;;;7.64;83.29;98818.14;114586;1194;137491;-63
2021/11/03 01:41:18;;;;;;;32.70;23.70;;;;;;;7.63;83.21;98821.48;113671;1195;96198;-62
2021/11/03 01:44:11;;;;;;;32.80;23.70;;;;;;;7.68;83.52;98821.06;114706;1195;94201;-62
2021/11/03 01:47:38;;;;;;;32.90;24.40;;;;;;;7.70;83.29;98818.71;114608;1194;139361;-62
2021/11/03 01:50:41;;;;;;;34.00;24.30;;;;;;;7.69;83.24;98823.25;113515;1195;108207;-62
2021/11/03 01:53:29;;;;;;;35.40;25.40;;;;;;;7.68;83.34;98822.64;114659;1195;107511;-61
2021/11/03 01:56:18;;;;;;;33.20;24.00;;;;;;;7.67;83.37;98823.88;114538;1195;94607;-61
2021/11/03 01:59:14;;;;;;;33.60;23.90;;;;;;;7.68;83.43;98826.92;114578;1195;138963;-61
2021/11/03 02:02:03;;;;;;;32.10;24.30;;;;;;;7.75;83.50;98822.19;114695;1195;110841;-61
2021/11/03 02:04:50;;;;;;;30.80;22.70;;;;;;;7.80;83.56;98821.09;114569;1194;138638;-61
2021/11/03 02:07:38;;;;;;;;;;;;;;;7.82;83.26;98818.23;114665;1194;108389;-61
2021/11/03 02:10:25;;;;;;;32.00;23.00;;;;;;;7.78;83.16;98822.55;114570;1194;124472;-61
2021/11/03 02:13:16;;;;;;;33.10;22.90;;;;;;;7.77;83.30;98822.23;114680;1195;94423;-62
2021/11/03 02:16:04;;;;;;;32.00;23.40;;;;;;;7.80;83.49;98824.00;113667;1195;137379;-62
2021/11/03 02:18:52;;;;;;;33.70;24.60;;;;;;;7.82;83.43;98823.77;114651;1195;108615;-61
2021/11/03 02:21:53;;;;;;;31.80;23.90;;;;;;;7.79;83.07;98823.71;114577;1194;137674;-62
2021/11/03 02:24:49;;;;;;;30.10;22.90;;;;;;;7.78;83.19;98827.94;114358;1195;94372;-61
2021/11/03 02:27:42;;;;;;;32.70;23.60;;;;;;;7.78;83.07;98829.14;113068;1195;137618;-62
2021/11/03 02:30:29;;;;;;;33.20;23.50;;;;;;;7.78;83.16;98826.54;113243;1187;110537;-62
2021/11/03 02:33:21;;;;;;;35.50;25.70;;;;;;;7.78;83.19;98829.31;113145;1195;137404;-62
2021/11/03 02:36:11;;;;;;;32.90;24.40;;;;;;;7.81;83.18;98830.57;114626;1195;107862;-62
2021/11/03 02:39:04;;;;;;;34.60;24.00;;;;;;;7.79;83.18;98824.23;114631;1187;94476;-62
2021/11/03 02:41:53;;;;;;;33.20;24.00;;;;;;;7.79;82.94;98825.98;114568;1194;94535;-62
2021/11/03 02:44:41;;;;;;;32.60;24.30;;;;;;;7.76;82.91;98828.52;114747;1194;109914;-62
2021/11/03 02:47:28;;;;;;;34.80;23.70;;;;;;;7.74;83.07;98825.84;114529;1194;139777;-62
2021/11/03 02:50:15;;;;;;;33.20;24.60;;;;;;;7.74;83.02;98826.21;114678;1193;108504;-62
2021/11/03 02:53:02;;;;;;;31.90;23.00;;;;;;;7.72;82.95;98831.46;114516;1195;138238;-62
2021/11/03 02:55:50;;;;;;;34.50;24.60;;;;;;;7.71;83.00;98823.88;114692;1195;94504;-62
2021/11/03 02:58:37;;;;;;;;;;;;;;;7.73;83.21;98829.54;114591;1194;138341;-62
2021/11/03 03:02:00;;;;;;;31.50;23.60;;;;;;;7.74;83.23;98835.58;114677;1194;108533;-62
2021/11/03 03:04:54;;;;;;;31.90;22.90;;;;;;;7.76;83.15;98837.36;113985;1198;138094;-62
2021/11/03 03:07:41;;;;;;;30.90;23.30;;;;;;;7.75;82.95;98844.13;114135;1198;94924;-62
2021/11/03 03:10:29;;;;;;;32.70;24.00;;;;;;;7.76;82.90;98846.34;114063;1197;137417;-62
2021/11/03 03:13:16;;;;;;;35.10;24.60;;;;;;;7.76;82.82;98843.91;114182;1197;109852;-62
2021/11/03 03:16:03;;;;;;;;;;;;;;;7.75;82.68;98844.81;114085;1197;138501;-63
2021/11/03 03:18:51;;;;;;;32.60;23.90;;;;;;;7.71;82.75;98846.37;114150;1198;108760;-62
2021/11/03 03:21:38;;;;;;;34.90;23.70;;;;;;;7.68;82.74;98849.61;114080;1198;138091;-62
2021/11/03 03:24:25;;;;;;;;;;;;;;;7.67;82.62;98852.44;113737;1198;96348;-62
2021/11/03 03:27:13;;;;;;;33.70;24.30;;;;;;;7.63;82.65;98857.27;114253;1197;110879;-62
2021/11/03 03:30:00;;;;;;;33.80;23.50;;;;;;;7.60;82.70;98859.30;114114;1197;137996;-63
2021/11/03 03:32:48;;;;;;;32.40;23.40;;;;;;;7.61;82.76;98858.60;114120;1197;108363;-63
2021/11/03 03:35:35;;;;;;;31.50;22.70;;;;;;;7.61;82.79;98861.20;114059;1197;138571;-61
2021/11/03 03:38:22;;;;;;;34.30;23.60;;;;;;;7.64;82.79;98859.48;113061;1195;96139;-62
2021/11/03 03:41:10;;;;;;;33.00;24.20;;;;;;;7.68;82.84;98857.23;114587;1194;136994;-63
2021/11/03 03:43:57;;;;;;;31.40;23.00;;;;;;;7.68;82.62;98864.33;114640;1195;109122;-63
2021/11/03 03:46:46;;;;;;;32.20;23.20;;;;;;;7.66;82.59;98864.05;114564;1194;138041;-63
2021/11/03 03:49:34;;;;;;;32.70;22.70;;;;;;;7.66;82.72;98868.38;114536;1195;94600;-62
2021/11/03 03:52:21;;;;;;;33.50;23.20;;;;;;;7.70;82.84;98867.34;114557;1195;137867;-61
2021/11/03 03:55:09;;;;;;;33.80;23.60;;;;;;;7.74;82.81;98873.95;114678;1195;111015;-61
2021/11/03 03:57:56;;;;;;;30.90;22.40;;;;;;;7.78;82.69;98872.05;114569;1195;137852;-61
2021/11/03 04:00:45;;;;;;;30.10;21.90;;;;;;;7.76;82.48;98870.22;114539;1195;108471;-61
2021/11/03 04:03:33;;;;;;;33.40;22.80;;;;;;;7.78;82.50;98867.53;114619;1195;94552;-62
2021/11/03 04:06:20;;;;;;;;;;;;;;;7.80;82.32;98865.54;114594;1193;137860;-60
2021/11/03 04:09:08;;;;;;;32.00;22.00;;;;;;;7.82;82.28;98865.46;114695;1195;109797;-61
2021/11/03 04:11:56;;;;;;;31.80;22.30;;;;;;;7.83;82.24;98865.42;114598;1194;137515;-61
2021/11/03 04:14:43;;;;;;;30.50;21.80;;;;;;;7.81;82.22;98871.20;114610;1195;109019;-61
2021/11/03 04:17:30;;;;;;;31.20;23.00;;;;;;;7.83;82.12;98866.98;114587;1194;137773;-62
2021/11/03 04:20:17;;;;;;;33.20;22.40;;;;;;;7.82;82.12;98870.47;114684;1194;94370;-62
2021/11/03 04:23:04;;;;;;;29.70;22.00;;;;;;;7.84;82.13;98874.89;114605;1194;137053;-62
2021/11/03 04:25:51;;;;;;;29.40;22.30;;;;;;;7.84;82.06;98873.13;114699;1193;108542;-62
2021/11/03 04:28:39;;;;;;;32.10;23.50;;;;;;;7.84;82.05;98878.86;114465;1195;138113;-62
2021/11/03 04:31:26;;;;;;;31.10;23.00;;;;;;;7.85;82.08;98879.86;114678;1194;94510;-61
2021/11/03 04:34:14;;;;;;;31.70;23.20;;;;;;;7.87;82.17;98882.52;114575;1194;137852;-62
2021/11/03 04:37:01;;;;;;;30.30;23.20;;;;;;;7.86;82.07;98883.59;114694;1195;110932;-62
2021/11/03 04:39:48;;;;;;;33.20;23.20;;;;;;;7.86;82.09;98884.30;114615;1195;108606;-62
2021/11/03 04:42:35;;;;;;;34.50;23.80;;;;;;;7.90;82.18;98887.77;114547;1194;137301;-62
2021/11/03 04:45:23;;;;;;;29.70;22.30;;;;;;;7.94;82.15;98888.34;114635;1194;94879;-62
2021/11/03 04:48:10;;;;;;;31.90;23.10;;;;;;;7.94;82.02;98894.58;114597;1193;137021;-62
2021/11/03 04:50:57;;;;;;;30.20;22.30;;;;;;;7.92;81.92;98897.05;114687;1194;110885;-62
2021/11/03 04:53:44;;;;;;;31.60;22.90;;;;;;;7.90;81.93;98900.08;114545;1194;137859;-62
2021/11/03 04:56:32;;;;;;;30.20;22.30;;;;;;;7.89;81.83;98908.07;114697;1194;108544;-62
2021/11/03 04:59:19;;;;;;;29.40;22.20;;;;;;;7.89;81.95;98912.20;114588;1194;137913;-62
2021/11/03 05:02:08;;;;;;;31.00;22.50;;;;;;;7.87;81.95;98917.13;114673;1195;94562;-62
2021/11/03 05:04:56;;;;;;;31.00;22.80;;;;;;;7.87;82.01;98921.98;114533;1194;138709;-62
2021/11/03 05:07:43;;;;;;;31.60;22.30;;;;;;;7.89;81.91;98922.60;114653;1195;107174;-62
2021/11/03 05:10:30;;;;;;;27.40;21.60;;;;;;;7.90;81.89;98927.25;114510;1195;138394;-62
2021/11/03 05:13:17;;;;;;;32.20;22.80;;;;;;;7.85;81.73;98927.95;114705;1194;94422;-62
2021/11/03 05:16:13;;;;;;;33.60;22.60;;;;;;;7.84;81.79;98933.21;114641;1194;94716;-62
2021/11/03 05:19:01;;;;;;;30.90;22.50;;;;;;;7.85;81.91;98934.89;114595;1195;111171;-62
2021/11/03 05:21:54;;;;;;;29.60;22.30;;;;;;;7.85;81.83;98938.52;114633;1195;107420;-62
2021/11/03 05:24:43;;;;;;;29.90;22.10;;;;;;;7.85;81.77;98944.21;114533;1194;137686;-62
2021/11/03 05:27:31;;;;;;;28.60;21.40;;;;;;;7.82;81.73;98949.20;114634;1195;94501;-62
2021/11/03 05:30:19;;;;;;;28.30;21.50;;;;;;;7.77;81.72;98947.16;114538;1194;137318;-62
2021/11/03 05:33:06;;;;;;;29.80;22.40;;;;;;;7.76;81.77;98946.36;114643;1194;110872;-62
2021/11/03 05:35:52;;;;;;;26.30;20.60;;;;;;;7.77;81.79;98948.57;114555;1194;138319;-62
2021/11/03 05:38:40;;;;;;;29.40;21.90;;;;;;;7.72;81.67;98949.27;114701;1194;109083;-62
2021/11/03 05:41:27;;;;;;;30.00;21.60;;;;;;;7.71;81.90;98951.56;114111;1194;138108;-62
2021/11/03 05:44:16;;;;;;;;;;;;;;;7.70;81.75;98958.71;113180;1195;96159;-62
2021/11/03 05:47:04;;;;;;;29.80;21.10;;;;;;;7.68;81.94;98963.27;113617;1194;123973;-63
2021/11/03 05:49:52;;;;;;;29.00;21.30;;;;;;;7.72;82.09;98966.08;114653;1194;108960;-63
2021/11/03 05:52:39;;;;;;;30.40;21.40;;;;;;;7.73;81.98;98972.12;114651;1195;108338;-63
2021/11/03 05:55:26;;;;;;;31.20;21.80;;;;;;;7.73;82.06;98973.13;114629;1195;94382;-63
2021/11/03 05:58:14;;;;;;;31.10;22.00;;;;;;;7.75;82.01;98979.13;114153;1194;94317;-63
2021/11/03 06:01:02;;;;;;;28.70;21.20;;;;;;;7.76;81.94;98980.80;113094;1195;137967;-63
2021/11/03 06:03:52;;;;;;;30.10;21.60;;;;;;;7.76;81.94;98987.38;114680;1195;108041;-61
2021/11/03 06:06:39;;;;;;;31.60;22.10;;;;;;;7.78;81.77;98989.88;114502;1194;137726;-61
2021/11/03 06:09:26;;;;;;;31.10;21.20;;;;;;;7.77;81.75;98999.08;114603;1193;94632;-62
2021/11/03 06:12:14;;;;;;;27.80;20.20;;;;;;;7.76;81.85;99008.98;114016;1194;138570;-62
2021/11/03 06:15:00;;;;;;;30.30;21.70;;;;;;;7.79;81.79;99008.17;114694;1194;110927;-62
2021/11/03 06:17:46;;;;;;;29.90;21.80;;;;;;;7.79;81.81;99014.91;114515;1195;138170;-62
2021/11/03 06:20:34;;;;;;;29.80;22.00;;;;;;;7.79;81.70;99013.71;113903;1195;109716;-63
2021/11/03 06:23:21;;;;;;;29.20;21.60;;;;;;;7.79;81.66;99020.77;114437;1194;138770;-63
2021/11/03 06:26:12;;;;;;;30.80;21.10;;;;;;;7.81;81.59;99025.21;114273;1194;94544;-63
2021/11/03 06:28:59;;;;;;;31.20;22.70;;;;;;;7.88;81.51;99029.10;114614;1194;111124;-63
2021/11/03 06:31:46;;;;;;;26.30;20.00;;;;;;;7.99;81.32;99037.48;114125;1194;138111;-62
2021/11/03 06:34:34;;;;;;;29.00;21.40;;;;;;;8.05;81.06;99041.39;113906;1194;108363;-62
2021/11/03 06:37:20;;;;;;;27.90;20.70;;;;;;;8.15;80.72;99044.07;114476;1194;138179;-62
2021/11/03 06:40:11;;;;;;;27.40;20.10;;;;;;;8.26;80.37;99046.41;114706;1194;94407;-62
2021/11/03 06:42:58;;;;;;;25.80;19.00;;;;;;;8.35;80.02;99044.98;114366;1194;137158;-62
2021/11/03 06:45:46;;;;;;;27.60;19.10;;;;;;;8.44;79.52;99050.17;113154;1195;106484;-62
2021/11/03 06:48:33;;;;;;;26.20;19.40;;;;;;;8.56;79.30;99050.34;114397;1194;137509;-62
2021/11/03 06:51:20;;;;;;;28.50;20.50;;;;;;;8.59;79.08;99058.34;114619;1194;95348;-62
2021/11/03 06:54:07;;;;;;;26.30;18.80;;;;;;;8.59;79.05;99059.71;114538;1194;137433;-62
2021/11/03 06:56:54;;;;;;;27.30;20.30;;;;;;;8.60;78.85;99063.52;113202;1195;111928;-62
2021/11/03 06:59:42;;;;;;;27.10;20.40;;;;;;;8.59;78.78;99068.59;113078;1192;138088;-63
2021/11/03 07:02:29;;;;;;;28.70;20.80;;;;;;;8.57;78.62;99064.86;114406;1194;108602;-63
2021/11/03 07:05:17;;;;;;;29.20;21.20;;;;;;;8.63;78.51;99065.10;114638;1194;95053;-63
2021/11/03 07:08:05;;;;;;;28.30;20.80;;;;;;;8.81;78.29;99070.04;114504;1194;137390;-63
2021/11/03 07:10:54;;;;;;;24.80;18.80;;;;;;;9.11;77.73;99070.11;114647;1193;110946;-63
2021/11/03 07:13:41;;;;;;;25.40;18.50;;;;;;;9.35;76.94;99072.50;114587;1194;137839;-63
2021/11/03 07:16:28;;;;;;;23.90;18.20;;;;;;;9.46;76.37;99077.35;114692;1195;108471;-63
2021/11/03 07:19:15;;;;;;;24.10;18.50;;;;;;;9.54;76.10;99081.65;114558;1194;137403;-63
2021/11/03 07:22:02;;;;;;;24.10;18.50;;;;;;;9.57;75.64;99081.89;114668;1195;94568;-64
2021/11/03 07:24:49;;;;;;;23.00;18.20;;;;;;;9.53;75.62;99087.80;114564;1194;136959;-63
2021/11/03 07:27:35;;;;;;;24.50;18.10;;;;;;;9.47;75.53;99088.74;114755;1194;108031;-64
2021/11/03 07:30:28;;;;;;;24.10;18.10;;;;;;;9.38;75.49;99091.25;114571;1194;138002;-63
2021/11/03 07:33:15;;;;;;;23.80;19.30;;;;;;;9.24;75.39;99095.88;114699;1194;94894;-62
2021/11/03 07:36:04;;;;;;;24.90;18.30;;;;;;;9.16;75.73;99096.10;114550;1194;139621;-62
2021/11/03 07:38:51;;;;;;;27.40;19.50;;;;;;;9.15;75.88;99105.84;114647;1194;110944;-62
2021/11/03 07:41:51;;;;;;;27.10;18.70;;;;;;;9.08;76.04;99110.79;113590;1194;137913;-63
2021/11/03 07:44:43;;;;;;;29.30;19.00;;;;;;;8.96;76.02;99109.45;114594;1195;107973;-63
2021/11/03 07:47:31;;;;;;;26.50;19.10;;;;;;;8.85;76.32;99111.81;114714;1194;94706;-63
2021/11/03 07:50:21;;;;;;;27.50;19.90;;;;;;;8.81;76.78;99117.55;113411;1194;137170;-63
2021/11/03 07:53:09;;;;;;;28.60;19.90;;;;;;;8.76;76.99;99126.02;114086;1194;110328;-63
2021/11/03 07:56:00;;;;;;;29.00;20.30;;;;;;;8.69;77.21;99130.02;113472;1194;137280;-63
2021/11/03 07:58:49;;;;;;;31.00;20.90;;;;;;;8.64;77.43;99130.59;114617;1195;108501;-62
2021/11/03 08:01:35;;;;;;;33.10;22.80;;;;;;;8.59;77.66;99135.47;114557;1194;137816;-62
2021/11/03 08:04:22;;;;;;;35.80;23.30;;;;;;;8.59;78.08;99133.72;114662;1194;94487;-62
2021/11/03 08:07:10;;;;;;;37.90;23.80;;;;;;;8.60;78.11;99138.02;114571;1194;137501;-63
2021/11/03 08:09:57;;;;;;;34.30;22.40;;;;;;;8.58;78.23;99143.47;114610;1194;108840;-62
2021/11/03 08:12:44;;;;;;;32.30;22.10;;;;;;;8.57;78.34;99146.30;114470;1194;138847;-62
2021/11/03 08:15:31;;;;;;;39.00;25.10;;;;;;;8.56;78.44;99151.37;114677;1194;94383;-62
2021/11/03 08:18:19;;;;;;;;;;;;;;;8.57;78.51;99151.15;114556;1193;137973;-62
2021/11/03 08:21:07;;;;;;;36.60;23.70;;;;;;;8.58;78.69;99153.34;114641;1194;110790;-62
2021/11/03 08:23:55;;;;;;;41.00;23.50;;;;;;;8.60;78.71;99153.27;114652;1194;107387;-62
2021/11/03 08:26:42;;;;;;;34.40;23.60;;;;;;;8.65;78.72;99152.20;114411;1193;137755;-62
2021/11/03 08:29:29;;;;;;;36.50;24.30;;;;;;;8.69;78.74;99154.09;114623;1193;94427;-63
2021/11/03 08:32:20;;;;;;;37.30;24.00;;;;;;;8.70;78.63;99162.70;114560;1194;137561;-62
2021/11/03 08:35:11;;;;;;;34.90;23.40;;;;;;;8.72;78.68;99162.13;114634;1195;111301;-62
2021/11/03 08:38:01;;;;;;;36.40;24.70;;;;;;;8.79;78.68;99165.64;114574;1187;139235;-62
2021/11/03 08:40:50;;;;;;;37.00;24.50;;;;;;;8.87;78.80;99167.05;114658;1194;108783;-62
2021/11/03 08:43:40;;;;;;;37.80;23.70;;;;;;;9.02;78.77;99159.98;114528;1193;137880;-63
2021/11/03 08:46:28;;;;;;;37.30;24.30;;;;;;;9.17;78.56;99165.23;114614;1195;94314;-63
2021/11/03 08:49:15;;;;;;;34.70;24.00;;;;;;;9.28;78.23;99175.33;114632;1193;137678;-62
2021/11/03 08:52:04;;;;;;;36.30;25.30;;;;;;;9.36;78.16;99178.96;114688;1195;107665;-63
2021/11/03 08:54:51;;;;;;;36.20;24.80;;;;;;;9.49;78.05;99179.05;114539;1194;138239;-62
2021/11/03 08:57:41;;;;;;;38.60;24.50;;;;;;;9.59;77.43;99181.19;113204;1195;96165;-63
2021/11/03 09:00:34;;;;;;;33.70;25.30;;;;;;;9.58;77.09;99181.44;113094;1195;138445;-63
2021/11/03 09:03:21;;;;;;;39.40;23.60;;;;;;;9.61;77.12;99183.23;113206;1196;110802;-63
2021/11/03 09:06:11;;;;;;;31.80;22.80;;;;;;;9.56;76.86;99186.90;114667;1195;106470;-63
2021/11/03 09:08:58;;;;;;;35.60;22.90;;;;;;;9.51;76.80;99193.38;114550;1195;138658;-61
2021/11/03 09:11:50;;;;;;;35.20;24.40;;;;;;;9.50;76.76;99196.35;114646;1194;94416;-62
2021/11/03 09:14:36;;;;;;;32.20;23.50;;;;;;;9.47;76.67;99194.92;114557;1194;138511;-62
2021/11/03 09:17:26;;;;;;;31.70;23.60;;;;;;;9.37;76.43;99199.89;114659;1195;110784;-62
2021/11/03 09:20:15;;;;;;;32.30;23.20;;;;;;;9.29;76.60;99201.61;114467;1195;138100;-62
2021/11/03 09:23:02;;;;;;;31.40;22.30;;;;;;;9.29;76.74;99203.35;114511;1195;108040;-62
2021/11/03 09:25:51;;;;;;;37.60;24.40;;;;;;;9.24;76.39;99207.05;114437;1193;138616;-62
2021/11/03 09:28:39;;;;;;;32.00;23.30;;;;;;;9.21;76.46;99209.12;113816;1195;94968;-62
2021/11/03 09:31:27;;;;;;;31.60;23.40;;;;;;;9.16;76.43;99204.64;114547;1193;137026;-62
2021/11/03 09:34:14;;;;;;;30.20;22.60;;;;;;;9.15;76.63;99210.20;114570;1194;108063;-62
2021/11/03 09:37:02;;;;;;;32.30;23.20;;;;;;;9.19;76.64;99212.17;114527;1194;138253;-62
2021/11/03 09:39:50;;;;;;;33.40;24.20;;;;;;;9.25;76.74;99213.11;114625;1194;94476;-63
2021/11/03 09:42:37;;;;;;;34.10;22.80;;;;;;;9.27;76.47;99213.52;114474;1193;138813;-63
2021/11/03 09:45:36;;;;;;;33.00;22.80;;;;;;;9.32;76.55;99215.39;114628;1194;110957;-63
2021/11/03 09:48:27;;;;;;;31.10;22.30;;;;;;;9.38;76.59;99215.27;114655;1195;107518;-63
2021/11/03 09:51:22;;;;;;;35.60;24.80;;;;;;;9.48;76.34;99217.27;114530;1193;137376;-63
2021/11/03 09:54:24;;;;;;;33.90;24.00;;;;;;;9.54;76.21;99223.24;114244;1194;94615;-63
2021/11/03 09:57:27;;;;;;;31.90;22.90;;;;;;;9.54;75.98;99221.20;113881;1195;138196;-64
2021/11/03 10:00:19;;;;;;;29.80;22.20;;;;;;;9.50;75.90;99226.71;114654;1193;111179;-62
2021/11/03 10:03:22;;;;;;;32.60;22.30;;;;;;;9.50;76.05;99227.27;114548;1195;137703;-62
2021/11/03 10:06:17;;;;;;;34.10;23.00;;;;;;;9.49;75.90;99228.16;114639;1195;108902;-62
2021/11/03 10:09:03;;;;;;;29.90;22.60;;;;;;;9.44;75.69;99231.85;114520;1195;138847;-62
2021/11/03 10:11:54;;;;;;;31.20;22.40;;;;;;;9.43;75.86;99233.83;114677;1194;94543;-62
2021/11/03 10:14:43;;;;;;;32.50;22.40;;;;;;;9.40;75.85;99238.62;114418;1195;137133;-64
2021/11/03 10:17:31;;;;;;;30.40;22.20;;;;;;;9.44;75.90;99239.30;114642;1195;106401;-62
2021/11/03 10:20:29;;;;;;;29.00;21.80;;;;;;;9.48;75.71;99250.77;114503;1195;138206;-62
2021/11/03 10:23:23;;;;;;;29.10;21.60;;;;;;;9.44;75.54;99248.17;114555;1195;94710;-62
2021/11/03 10:26:12;;;;;;;33.60;23.90;;;;;;;9.43;75.68;99252.19;114566;1195;137583;-64
2021/11/03 10:29:09;;;;;;;30.70;22.80;;;;;;;9.43;75.61;99248.39;114712;1195;109602;-62
2021/11/03 10:32:18;;;;;;;28.00;20.80;;;;;;;9.48;75.85;99248.33;114412;1195;137887;-62
2021/11/03 10:35:07;;;;;;;27.60;20.70;;;;;;;9.61;75.84;99247.79;114680;1193;106516;-62
2021/11/03 10:38:12;;;;;;;32.10;22.10;;;;;;;9.73;75.60;99251.77;114560;1194;137444;-61
2021/11/03 10:41:02;;;;;;;28.50;21.50;;;;;;;9.89;75.37;99253.80;114636;1195;94479;-62
2021/11/03 10:44:07;;;;;;;27.50;20.20;;;;;;;10.10;75.29;99251.44;114445;1195;137145;-62
2021/11/03 10:47:20;;;;;;;32.00;20.70;;;;;;;10.44;75.10;99246.25;114678;1195;108635;-62
2021/11/03 10:50:43;;;;;;;;;;;;;;;;;;;;;
2021/11/03 10:53:33;;;;;;;;;;;;;;;11.68;73.92;99240.23;113613;1196;96347;-64
2021/11/03 10:56:20;;;;;;;24.20;18.70;;;;;;;12.11;73.20;99237.06;113143;1195;123364;-62
2021/11/03 10:59:16;;;;;;;25.30;18.80;;;;;;;12.51;72.34;99229.09;113316;1195;110984;-63
2021/11/03 11:02:22;;;;;;;28.20;18.70;;;;;;;12.94;71.82;99228.55;114583;1195;137705;-62
2021/11/03 11:05:17;;;;;;;21.60;18.40;;;;;;;13.16;70.21;99231.95;114685;1195;107588;-63
2021/11/03 11:08:26;;;;;;;22.00;18.20;;;;;;;13.23;69.70;99237.84;114483;1195;137829;-63
2021/11/03 11:11:15;;;;;;;22.20;17.40;;;;;;;13.24;69.10;99234.45;114679;1193;94262;-63
2021/11/03 11:14:11;;;;;;;22.90;18.20;;;;;;;13.35;69.12;99236.98;114547;1195;137515;-63
2021/11/03 11:17:01;;;;;;;26.50;17.30;;;;;;;13.51;68.36;99241.07;114611;1195;108809;-63
2021/11/03 11:20:36;;;;;;;22.80;17.70;;;;;;;13.64;68.38;99243.10;114576;1195;139198;-63
2021/11/03 11:23:30;;;;;;;24.00;18.00;;;;;;;13.66;67.57;99245.56;114738;1195;94546;-63
2021/11/03 11:26:37;;;;;;;24.20;18.30;;;;;;;13.56;67.39;99244.98;114559;1193;137414;-63
2021/11/03 11:29:30;;;;;;;22.80;17.40;;;;;;;13.47;67.06;99248.84;114580;1193;110795;-63
2021/11/03 11:32:50;;;;;;;22.40;17.60;;;;;;;13.25;66.64;99247.66;113079;1195;136920;-62
2021/11/03 11:35:43;;;;;;;23.40;17.30;;;;;;;13.14;67.24;99250.71;113216;1195;108790;-63
2021/11/03 11:39:03;;;;;;;19.40;16.00;;;;;;;13.13;67.37;99251.50;113115;1195;137478;-63
2021/11/03 11:42:11;;;;;;;21.80;16.10;;;;;;;13.05;66.62;99251.76;114648;1195;94438;-63
2021/11/03 11:45:14;;;;;;;21.70;16.30;;;;;;;12.80;65.90;99246.25;114539;1194;137736;-62
2021/11/03 11:48:06;;;;;;;21.40;14.60;;;;;;;12.46;66.07;99247.99;114641;1195;107565;-63
2021/11/03 11:51:03;;;;;;;19.90;15.00;;;;;;;12.29;66.20;99246.88;114596;1195;137773;-62
2021/11/03 11:53:50;;;;;;;18.30;14.80;;;;;;;12.14;66.50;99245.92;114561;1195;94445;-62
2021/11/03 11:56:38;;;;;;;20.50;13.90;;;;;;;12.06;66.89;99244.11;114546;1194;137838;-62
2021/11/03 12:00:01;;;;;;;19.10;12.60;;;;;;;11.99;66.78;99258.08;114698;1187;111020;-62
2021/11/03 12:03:27;;;;;;;16.70;12.70;;;;;;;11.90;67.13;99251.98;114533;1194;138046;-63
2021/11/03 12:06:42;;;;;;;17.60;13.10;;;;;;;11.96;66.94;99256.66;114626;1195;108425;-63
2021/11/03 12:09:34;;;;;;;15.10;11.50;;;;;;;12.05;66.82;99250.41;114461;1195;137790;-63
2021/11/03 12:12:23;;;;;;;16.10;12.10;;;;;;;12.18;66.52;99247.49;114631;1195;94727;-63
2021/11/03 12:15:42;;;;;;;15.30;12.40;;;;;;;12.48;66.63;99242.64;114490;1195;137691;-63
2021/11/03 12:18:29;;;;;;;15.20;11.40;;;;;;;12.93;66.27;99241.50;114662;1195;108577;-63
2021/11/03 12:21:25;;;;;;;13.70;10.80;;;;;;;13.26;65.81;99248.66;114579;1193;137373;-63
2021/11/03 12:24:28;;;;;;;15.40;10.80;;;;;;;13.60;64.49;99246.10;114691;1195;94526;-63
2021/11/03 12:27:26;;;;;;;12.80;9.60;;;;;;;13.87;63.26;99240.94;114547;1195;137925;-63
2021/11/03 12:30:16;;;;;;;;;;;;;;;14.06;62.79;99242.94;114494;1195;111112;-64
2021/11/03 12:33:06;;;;;;;12.90;9.60;;;;;;;14.27;62.19;99237.59;113196;1195;123573;-63
2021/11/03 12:36:10;;;;;;;15.60;9.90;;;;;;;14.39;61.41;99241.16;113195;1193;108656;-63
2021/11/03 12:39:03;;;;;;;12.80;10.10;;;;;;;14.52;61.36;99242.15;112979;1195;137314;-63
2021/11/03 12:41:51;;;;;;;15.20;10.40;;;;;;;14.54;60.81;99234.52;113217;1195;96157;-63
2021/11/03 12:44:45;;;;;;;16.10;11.20;;;;;;;14.44;59.95;99240.86;113130;1193;137342;-64
2021/11/03 12:47:46;;;;;;;10.80;9.70;;;;;;;14.22;59.41;99247.52;113266;1193;108661;-64
2021/11/03 12:50:41;;;;;;;14.40;11.10;;;;;;;13.99;59.29;99240.06;113030;1196;137580;-62
2021/11/03 12:53:32;;;;;;;14.80;10.30;;;;;;;13.95;60.28;99238.90;113202;1195;96972;-63
2021/11/03 12:56:23;;;;;;;14.20;10.60;;;;;;;14.07;60.05;99242.18;113173;1195;137217;-64
2021/11/03 12:59:22;;;;;;;14.50;9.90;;;;;;;14.07;60.08;99236.77;114703;1194;110798;-62
2021/11/03 13:02:24;;;;;;;12.50;9.80;;;;;;;14.21;60.62;99239.36;114537;1195;137426;-62